Time,TemperatureF,DewpointF,PressureIn,WindDirection,WindDirectionDegrees,WindSpeedMPH,WindSpeedGustMPH,Humidity,HourlyPrecipIn,Conditions,Clouds,dailyrainin,SoftwareType,DateUTC
2013-02-26 00:01:00,23.0,14.0,-100.00,ENE,65,0.0,2.0,67,-99.99,,,-99.99,,2013-02-26 07:01:00,
2013-02-26 00:11:00,23.0,14.0,-100.00,NE,40,0.0,2.0,68,-99.99,,,-99.99,,2013-02-26 07:11:00,
2013-02-26 00:21:00,23.0,14.0,-100.00,NE,40,0.0,2.0,68,-99.99,,,-99.99,,2013-02-26 07:21:00,
2013-02-26 00:31:00,22.0,14.0,-100.00,East,90,0.0,2.0,69,-99.99,,,-99.99,,2013-02-26 07:31:00,
2013-02-26 00:41:00,22.0,14.0,-100.00,East,90,0.0,2.0,69,-99.99,,,-99.99,,2013-02-26 07:41:00,
2013-02-26 00:52:00,22.0,14.0,-100.00,East,80,0.0,2.0,70,-99.99,,,-99.99,,2013-02-26 07:52:00,
2013-02-26 01:01:00,22.0,14.0,-100.00,East,80,0.0,2.0,70,-99.99,,,-99.99,,2013-02-26 08:01:00,
2013-02-26 01:11:00,21.0,13.0,-100.00,ESE,115,0.0,2.0,71,-99.99,,,-99.99,,2013-02-26 08:11:00,
2013-02-26 01:21:00,21.0,13.0,-100.00,ESE,115,0.0,2.0,71,-99.99,,,-99.99,,2013-02-26 08:21:00,
2013-02-26 01:31:00,21.0,13.0,-100.00,NNW,345,0.0,2.0,72,-99.99,,,-99.99,,2013-02-26 08:31:00,
2013-02-26 01:41:00,21.0,13.0,-100.00,NNW,345,0.0,2.0,72,-99.99,,,-99.99,,2013-02-26 08:41:00,
2013-02-26 01:52:00,21.0,14.0,-100.00,East,80,0.0,3.0,73,-99.99,,,-99.99,,2013-02-26 08:52:00,
2013-02-26 02:01:00,21.0,14.0,-100.00,NE,35,0.0,3.0,73,-99.99,,,-99.99,,2013-02-26 09:01:00,
2013-02-26 02:11:00,21.0,14.0,-100.00,ENE,70,1.0,2.0,74,-99.99,,,-99.99,,2013-02-26 09:11:00,
2013-02-26 02:21:00,21.0,14.0,-100.00,ENE,70,1.0,2.0,74,-99.99,,,-99.99,,2013-02-26 09:21:00,
2013-02-26 02:31:00,21.0,14.0,-100.00,NE,55,0.0,3.0,74,-99.99,,,-99.99,,2013-02-26 09:31:00,
2013-02-26 02:43:00,21.0,15.0,-100.00,West,280,2.0,3.0,74,-99.99,,,-99.99,,2013-02-26 09:43:00,
2013-02-26 02:51:00,21.0,15.0,-100.00,West,280,2.0,3.0,74,-99.99,,,-99.99,,2013-02-26 09:51:00,
2013-02-26 03:01:00,22.0,16.0,-100.00,SW,220,4.0,6.0,75,-99.99,,,-99.99,,2013-02-26 10:01:00,
2013-02-26 03:11:00,22.0,16.0,-100.00,SW,220,4.0,6.0,75,-99.99,,,-99.99,,2013-02-26 10:11:00,
2013-02-26 03:21:00,22.0,15.0,-100.00,ENE,70,0.0,4.0,75,-99.99,,,-99.99,,2013-02-26 10:21:00,
2013-02-26 03:31:00,22.0,15.0,-100.00,ENE,70,0.0,4.0,75,-99.99,,,-99.99,,2013-02-26 10:31:00,
2013-02-26 03:41:00,21.0,15.0,-100.00,NE,55,1.0,6.0,75,-99.99,,,-99.99,,2013-02-26 10:41:00,
2013-02-26 03:52:00,21.0,15.0,-100.00,NE,55,1.0,6.0,75,-99.99,,,-99.99,,2013-02-26 10:52:00,
2013-02-26 04:01:00,22.0,15.0,-100.00,ENE,60,1.0,3.0,75,-99.99,,,-99.99,,2013-02-26 11:01:00,
2013-02-26 04:11:00,22.0,15.0,-100.00,ENE,60,1.0,3.0,75,-99.99,,,-99.99,,2013-02-26 11:11:00,
2013-02-26 04:21:00,22.0,15.0,-100.00,North,10,1.0,3.0,75,-99.99,,,-99.99,,2013-02-26 11:21:00,
2013-02-26 04:31:00,22.0,15.0,-100.00,ENE,70,1.0,4.0,75,-99.99,,,-99.99,,2013-02-26 11:31:00,
2013-02-26 04:41:00,22.0,15.0,-100.00,ENE,70,1.0,4.0,75,-99.99,,,-99.99,,2013-02-26 11:41:00,
2013-02-26 04:52:00,22.0,15.0,-100.00,East,80,0.0,4.0,75,-99.99,,,-99.99,,2013-02-26 11:52:00,
2013-02-26 05:01:00,22.0,15.0,-100.00,East,85,0.0,1.0,75,-99.99,,,-99.99,,2013-02-26 12:01:00,
2013-02-26 05:11:00,22.0,15.0,-100.00,SSE,165,0.0,1.0,75,-99.99,,,-99.99,,2013-02-26 12:11:00,
2013-02-26 05:22:00,22.0,15.0,-100.00,SW,220,0.0,2.0,75,-99.99,,,-99.99,,2013-02-26 12:22:00,
2013-02-26 05:32:00,22.0,15.0,-100.00,SW,220,0.0,2.0,75,-99.99,,,-99.99,,2013-02-26 12:32:00,
2013-02-26 05:42:00,22.0,16.0,-100.00,ENE,60,1.0,3.0,77,-99.99,,,-99.99,,2013-02-26 12:42:00,
2013-02-26 05:53:00,22.0,16.0,-100.00,ENE,60,1.0,3.0,77,-99.99,,,-99.99,,2013-02-26 12:53:00,
2013-02-26 06:01:00,21.0,16.0,-100.00,NE,50,1.0,4.0,80,-99.99,,,-99.99,,2013-02-26 13:01:00,
2013-02-26 06:11:00,21.0,16.0,-100.00,NE,50,1.0,4.0,80,-99.99,,,-99.99,,2013-02-26 13:11:00,
2013-02-26 06:21:00,21.0,16.0,-100.00,ENE,75,1.0,4.0,81,-99.99,,,-99.99,,2013-02-26 13:21:00,
2013-02-26 06:31:00,21.0,17.0,-100.00,East,80,1.0,4.0,82,-99.99,,,-99.99,,2013-02-26 13:31:00,
2013-02-26 06:42:00,21.0,17.0,-100.00,ENE,60,1.0,4.0,83,-99.99,,,-99.99,,2013-02-26 13:42:00,
2013-02-26 06:52:00,21.0,17.0,-100.00,ENE,60,1.0,4.0,83,-99.99,,,-99.99,,2013-02-26 13:52:00,
2013-02-26 07:01:00,21.0,17.0,-100.00,ENE,70,1.0,4.0,84,-99.99,,,-99.99,,2013-02-26 14:01:00,
2013-02-26 07:11:00,21.0,17.0,-100.00,ENE,70,1.0,4.0,84,-99.99,,,-99.99,,2013-02-26 14:11:00,
2013-02-26 07:21:00,21.0,17.0,-100.00,ENE,65,0.0,2.0,86,-99.99,,,-99.99,,2013-02-26 14:21:00,
2013-02-26 07:31:00,21.0,18.0,-100.00,East,80,0.0,1.0,86,-99.99,,,-99.99,,2013-02-26 14:31:00,
2013-02-26 07:42:00,21.0,18.0,-100.00,ENE,65,0.0,2.0,87,-99.99,,,-99.99,,2013-02-26 14:42:00,
2013-02-26 07:52:00,21.0,18.0,-100.00,ENE,75,1.0,2.0,88,-99.99,,,-99.99,,2013-02-26 14:52:00,
2013-02-26 08:01:00,21.0,18.0,-100.00,East,85,0.0,2.0,88,-99.99,,,-99.99,,2013-02-26 15:01:00,
2013-02-26 08:11:00,21.0,18.0,-100.00,East,85,0.0,2.0,88,-99.99,,,-99.99,,2013-02-26 15:11:00,
2013-02-26 08:21:00,21.0,19.0,-100.00,East,85,1.0,2.0,90,-99.99,,,-99.99,,2013-02-26 15:21:00,
2013-02-26 08:32:00,21.0,19.0,-100.00,East,80,0.0,3.0,90,-99.99,,,-99.99,,2013-02-26 15:32:00,
2013-02-26 08:41:00,22.0,20.0,-100.00,SE,125,1.0,2.0,91,-99.99,,,-99.99,,2013-02-26 15:41:00,
2013-02-26 08:51:00,22.0,20.0,-100.00,SE,125,1.0,2.0,91,-99.99,,,-99.99,,2013-02-26 15:51:00,
2013-02-26 09:01:00,22.0,20.0,-100.00,East,100,1.0,2.0,91,-99.99,,,-99.99,,2013-02-26 16:01:00,
2013-02-26 09:11:00,23.0,21.0,-100.00,SE,135,0.0,1.0,92,-99.99,,,-99.99,,2013-02-26 16:11:00,
2013-02-26 09:22:00,23.0,21.0,-100.00,WSW,240,2.0,3.0,92,-99.99,,,-99.99,,2013-02-26 16:22:00,
2013-02-26 09:31:00,23.0,21.0,-100.00,SW,220,2.0,3.0,92,-99.99,,,-99.99,,2013-02-26 16:31:00,
2013-02-26 09:41:00,24.0,22.0,-100.00,SSW,210,2.0,4.0,92,-99.99,,,-99.99,,2013-02-26 16:41:00,
2013-02-26 09:51:00,24.0,22.0,-100.00,SSW,210,2.0,4.0,92,-99.99,,,-99.99,,2013-02-26 16:51:00,
2013-02-26 10:01:00,24.0,22.0,-100.00,SW,225,3.0,6.0,92,-99.99,,,-99.99,,2013-02-26 17:01:00,
2013-02-26 10:11:00,24.0,22.0,-100.00,SW,225,3.0,6.0,92,-99.99,,,-99.99,,2013-02-26 17:11:00,
2013-02-26 10:21:00,24.0,22.0,-100.00,SSW,205,4.0,7.0,90,-99.99,,,-99.99,,2013-02-26 17:21:00,
2013-02-26 10:32:00,25.0,22.0,-100.00,SW,220,6.0,9.0,88,-99.99,,,-99.99,,2013-02-26 17:32:00,
2013-02-26 10:41:00,25.0,22.0,-100.00,SW,220,4.0,9.0,87,-99.99,,,-99.99,,2013-02-26 17:41:00,
2013-02-26 10:52:00,25.0,22.0,-100.00,SW,220,4.0,9.0,87,-99.99,,,-99.99,,2013-02-26 17:52:00,
2013-02-26 11:01:00,26.0,22.0,-100.00,SW,235,6.0,9.0,84,-99.99,,,-99.99,,2013-02-26 18:01:00,
2013-02-26 11:12:00,26.0,21.0,-100.00,SW,235,5.0,9.0,82,-99.99,,,-99.99,,2013-02-26 18:12:00,
2013-02-26 11:21:00,26.0,21.0,-100.00,SW,220,7.0,9.0,81,-99.99,,,-99.99,,2013-02-26 18:21:00,
2013-02-26 11:32:00,26.0,21.0,-100.00,SW,225,6.0,10.0,80,-99.99,,,-99.99,,2013-02-26 18:32:00,
2013-02-26 11:42:00,26.0,21.0,-100.00,SW,235,4.0,9.0,79,-99.99,,,-99.99,,2013-02-26 18:42:00,
2013-02-26 11:52:00,27.0,21.0,-100.00,SW,235,4.0,10.0,77,-99.99,,,-99.99,,2013-02-26 18:52:00,
2013-02-26 12:01:00,26.0,20.0,-100.00,WSW,240,4.0,9.0,75,-99.99,,,-99.99,,2013-02-26 19:01:00,
2013-02-26 12:11:00,26.0,19.0,-100.00,SW,235,2.0,7.0,72,-99.99,,,-99.99,,2013-02-26 19:11:00,
2013-02-26 12:21:00,26.0,19.0,-100.00,SW,235,2.0,7.0,72,-99.99,,,-99.99,,2013-02-26 19:21:00,
2013-02-26 12:31:00,27.0,19.0,-100.00,SSW,205,1.0,4.0,71,-99.99,,,-99.99,,2013-02-26 19:31:00,
2013-02-26 12:41:00,27.0,19.0,-100.00,SSW,205,1.0,4.0,71,-99.99,,,-99.99,,2013-02-26 19:41:00,
2013-02-26 12:51:00,27.0,18.0,-100.00,WSW,245,4.0,8.0,69,-99.99,,,-99.99,,2013-02-26 19:51:00,
2013-02-26 13:01:00,27.0,19.0,-100.00,SW,215,3.0,6.0,70,-99.99,,,-99.99,,2013-02-26 20:01:00,
2013-02-26 13:11:00,27.0,19.0,-100.00,SW,215,3.0,6.0,70,-99.99,,,-99.99,,2013-02-26 20:11:00,
2013-02-26 13:21:00,27.0,20.0,-100.00,East,85,2.0,3.0,72,-99.99,,,-99.99,,2013-02-26 20:21:00,
2013-02-26 13:31:00,27.0,20.0,-100.00,East,85,2.0,4.0,73,-99.99,,,-99.99,,2013-02-26 20:31:00,
2013-02-26 13:41:00,27.0,20.0,-100.00,ENE,70,3.0,6.0,73,-99.99,,,-99.99,,2013-02-26 20:41:00,
2013-02-26 13:51:00,27.0,20.0,-100.00,NE,55,2.0,5.0,74,-99.99,,,-99.99,,2013-02-26 20:51:00,
2013-02-26 14:01:00,27.0,21.0,-100.00,East,80,3.0,4.0,75,-99.99,,,-99.99,,2013-02-26 21:01:00,
2013-02-26 14:11:00,28.0,21.0,-100.00,ENE,75,1.0,4.0,75,-99.99,,,-99.99,,2013-02-26 21:11:00,
2013-02-26 14:21:00,28.0,21.0,-100.00,ESE,110,1.0,3.0,75,-99.99,,,-99.99,,2013-02-26 21:21:00,
2013-02-26 14:31:00,28.0,19.0,-100.00,SW,230,8.0,12.0,67,-99.99,,,-99.99,,2013-02-26 21:31:00,
2013-02-26 14:41:00,29.0,17.0,-100.00,SW,215,7.0,15.0,61,-99.99,,,-99.99,,2013-02-26 21:41:00,
2013-02-26 14:51:00,29.0,16.0,-100.00,SW,225,9.0,13.0,57,-99.99,,,-99.99,,2013-02-26 21:51:00,
2013-02-26 15:01:00,29.0,16.0,-100.00,SW,225,9.0,13.0,57,-99.99,,,-99.99,,2013-02-26 22:01:00,
2013-02-26 15:11:00,29.0,16.0,-100.00,SW,220,6.0,13.0,55,-99.99,,,-99.99,,2013-02-26 22:11:00,
2013-02-26 15:21:00,29.0,16.0,-100.00,SW,220,6.0,13.0,55,-99.99,,,-99.99,,2013-02-26 22:21:00,
2013-02-26 15:31:00,29.0,15.0,-100.00,SW,235,6.0,14.0,54,-99.99,,,-99.99,,2013-02-26 22:31:00,
2013-02-26 15:41:00,29.0,15.0,-100.00,SW,235,6.0,14.0,54,-99.99,,,-99.99,,2013-02-26 22:41:00,
2013-02-26 15:51:00,29.0,14.0,-100.00,SW,215,6.0,9.0,52,-99.99,,,-99.99,,2013-02-26 22:51:00,
2013-02-26 16:01:00,29.0,13.0,-100.00,SW,220,7.0,11.0,51,-99.99,,,-99.99,,2013-02-26 23:01:00,
2013-02-26 16:11:00,29.0,13.0,-100.00,SW,225,7.0,13.0,50,-99.99,,,-99.99,,2013-02-26 23:11:00,
2013-02-26 16:21:00,29.0,13.0,-100.00,SW,225,7.0,10.0,50,-99.99,,,-99.99,,2013-02-26 23:21:00,
2013-02-26 16:31:00,29.0,13.0,-100.00,SW,225,6.0,12.0,50,-99.99,,,-99.99,,2013-02-26 23:31:00,
2013-02-26 16:41:00,29.0,13.0,-100.00,SSE,150,5.0,10.0,50,-99.99,,,-99.99,,2013-02-26 23:41:00,
2013-02-26 16:51:00,29.0,13.0,-100.00,West,280,4.0,8.0,50,-99.99,,,-99.99,,2013-02-26 23:51:00,
2013-02-26 17:01:00,29.0,13.0,-100.00,West,280,4.0,8.0,50,-99.99,,,-99.99,,2013-02-27 00:01:00,
2013-02-26 17:11:00,29.0,13.0,-100.00,SW,215,3.0,7.0,51,-99.99,,,-99.99,,2013-02-27 00:11:00,
2013-02-26 17:21:00,29.0,14.0,-100.00,ENE,60,2.0,5.0,52,-99.99,,,-99.99,,2013-02-27 00:21:00,
2013-02-26 17:31:00,29.0,17.0,-100.00,ENE,60,2.0,5.0,59,-99.99,,,-99.99,,2013-02-27 00:31:00,
2013-02-26 17:41:00,29.0,17.0,-100.00,ENE,60,2.0,5.0,59,-99.99,,,-99.99,,2013-02-27 00:41:00,
2013-02-26 17:51:00,29.0,18.0,-100.00,NE,45,1.0,4.0,63,-99.99,,,-99.99,,2013-02-27 00:51:00,
2013-02-26 18:01:00,28.0,18.0,-100.00,ENE,65,2.0,7.0,65,-99.99,,,-99.99,,2013-02-27 01:01:00,
2013-02-26 18:11:00,28.0,18.0,-100.00,ENE,65,2.0,7.0,65,-99.99,,,-99.99,,2013-02-27 01:11:00,
2013-02-26 18:21:00,28.0,19.0,-100.00,ENE,70,0.0,2.0,69,-99.99,,,-99.99,,2013-02-27 01:21:00,
2013-02-26 18:31:00,27.0,19.0,-100.00,East,80,0.0,2.0,71,-99.99,,,-99.99,,2013-02-27 01:31:00,
2013-02-26 18:41:00,27.0,19.0,-100.00,East,80,0.0,2.0,71,-99.99,,,-99.99,,2013-02-27 01:41:00,
2013-02-26 18:52:00,27.0,19.0,-100.00,East,80,0.0,2.0,71,-99.99,,,-99.99,,2013-02-27 01:52:00,
2013-02-26 19:01:00,27.0,20.0,-100.00,South,185,0.0,2.0,72,-99.99,,,-99.99,,2013-02-27 02:01:00,
2013-02-26 19:13:00,27.0,20.0,-100.00,South,185,0.0,2.0,72,-99.99,,,-99.99,,2013-02-27 02:13:00,
2013-02-26 19:22:00,27.0,20.0,-100.00,South,180,0.0,0.0,73,-99.99,,,-99.99,,2013-02-27 02:22:00,
2013-02-26 19:32:00,27.0,20.0,-100.00,South,180,0.0,0.0,73,-99.99,,,-99.99,,2013-02-27 02:32:00,
2013-02-26 19:41:00,27.0,20.0,-100.00,ENE,75,1.0,5.0,74,-99.99,,,-99.99,,2013-02-27 02:41:00,
2013-02-26 19:52:00,27.0,20.0,-100.00,NE,50,0.0,2.0,75,-99.99,,,-99.99,,2013-02-27 02:52:00,
2013-02-26 20:01:00,26.0,20.0,-100.00,East,95,0.0,2.0,76,-99.99,,,-99.99,,2013-02-27 03:01:00,
2013-02-26 20:11:00,26.0,20.0,-100.00,East,95,0.0,2.0,76,-99.99,,,-99.99,,2013-02-27 03:11:00,
2013-02-26 20:21:00,25.0,19.0,-100.00,NE,55,0.0,4.0,78,-99.99,,,-99.99,,2013-02-27 03:21:00,
2013-02-26 20:31:00,25.0,19.0,-100.00,NW,325,0.0,0.0,78,-99.99,,,-99.99,,2013-02-27 03:31:00,
2013-02-26 20:41:00,25.0,19.0,-100.00,NW,325,0.0,0.0,78,-99.99,,,-99.99,,2013-02-27 03:41:00,
2013-02-26 20:52:00,24.0,18.0,-100.00,West,270,2.0,6.0,77,-99.99,,,-99.99,,2013-02-27 03:52:00,
2013-02-26 21:01:00,24.0,18.0,-100.00,West,270,2.0,6.0,77,-99.99,,,-99.99,,2013-02-27 04:01:00,
2013-02-26 21:11:00,24.0,17.0,-100.00,WSW,240,3.0,6.0,75,-99.99,,,-99.99,,2013-02-27 04:11:00,
2013-02-26 21:21:00,23.0,16.0,-100.00,WSW,245,4.0,6.0,74,-99.99,,,-99.99,,2013-02-27 04:21:00,
2013-02-26 21:31:00,23.0,16.0,-100.00,WSW,245,4.0,6.0,74,-99.99,,,-99.99,,2013-02-27 04:31:00,
2013-02-26 21:41:00,23.0,15.0,-100.00,WNW,295,4.0,6.0,71,-99.99,,,-99.99,,2013-02-27 04:41:00,
2013-02-26 21:51:00,22.0,14.0,-100.00,WSW,245,3.0,6.0,70,-99.99,,,-99.99,,2013-02-27 04:51:00,
2013-02-26 22:01:00,22.0,14.0,-100.00,WSW,255,4.0,6.0,70,-99.99,,,-99.99,,2013-02-27 05:01:00,
2013-02-26 22:11:00,22.0,14.0,-100.00,SW,220,5.0,6.0,70,-99.99,,,-99.99,,2013-02-27 05:11:00,
2013-02-26 22:21:00,22.0,14.0,-100.00,WSW,245,6.0,7.0,70,-99.99,,,-99.99,,2013-02-27 05:21:00,
2013-02-26 22:32:00,22.0,14.0,-100.00,SW,235,4.0,7.0,70,-99.99,,,-99.99,,2013-02-27 05:32:00,
2013-02-26 22:41:00,21.0,13.0,-100.00,SW,225,4.0,7.0,70,-99.99,,,-99.99,,2013-02-27 05:41:00,
2013-02-26 22:52:00,21.0,13.0,-100.00,SW,220,4.0,7.0,70,-99.99,,,-99.99,,2013-02-27 05:52:00,
2013-02-26 23:02:00,21.0,13.0,-100.00,SW,220,4.0,7.0,70,-99.99,,,-99.99,,2013-02-27 06:02:00,
2013-02-26 23:11:00,20.0,13.0,-100.00,SW,225,5.0,8.0,71,-99.99,,,-99.99,,2013-02-27 06:11:00,
2013-02-26 23:21:00,20.0,13.0,-100.00,WSW,255,2.0,7.0,71,-99.99,,,-99.99,,2013-02-27 06:21:00,
2013-02-26 23:32:00,20.0,13.0,-100.00,West,270,4.0,7.0,72,-99.99,,,-99.99,,2013-02-27 06:32:00,
2013-02-26 23:41:00,20.0,12.0,-100.00,SW,225,3.0,6.0,72,-99.99,,,-99.99,,2013-02-27 06:41:00,
2013-02-26 23:51:00,20.0,12.0,-100.00,NNE,20,0.0,4.0,72,-99.99,,,-99.99,,2013-02-27 06:51:00,